• Join FlightAware (Why Join?)
  • Login
  • US Flag 
02:41PM EDT


 

Airport Tracker/Info


-or-


 

Live Flight TrackerFlight Track Log ✈ SWA757 ✈ 24-Apr-2013 ✈ KSJC - KSAN

Flight Track Log - Related Links

Times and Time Zones

All times are in EDT time to prevent confusion due to time zone crossing. See the SWA757 flight status page for this flight to view local times or setup timezone preferences in your user account.

Time Position Orientation Groundspeed Altitude Reporting Facility
EDT Latitude Longitude Course Direction KTS MPH feet Rate Location/Type
11:31PM 37.4000 -121.9667 141° Southeast 168 193 2,200  Level Northern Cal TRACON
11:32PM 37.4500 -121.9667 360° North 237 273 4,700 1,440 Climbing Northern Cal TRACON
11:33PM 37.4167 -121.8833 117° Southeast 258 297 5,100 1,080 Climbing Northern Cal TRACON
11:35PM 37.3464 -121.8083 140° Southeast 249 287 7,400 1,920 Climbing Oakland Center
11:36PM 37.2919 -121.7472 138° Southeast 264 304 10,000 2,040 Climbing Oakland Center
11:37PM 36.8971 -121.4179 141° Southeast  Level Estimated
11:37PM 37.2247 -121.6753 140° Southeast 317 365 11,600  Level Oakland Center
11:38PM 37.1492 -121.5914 138° Southeast 357 411 14,800 3,240 Climbing Oakland Center
11:39PM 37.0625 -121.4975 139° Southeast 383 441 18,200 3,180 Climbing Oakland Center
11:40PM 36.9794 -121.4036 138° Southeast 400 460 21,300 2,700 Climbing Oakland Center
11:41PM 36.8897 -121.3036 138° Southeast 427 491 23,700 2,400 Climbing Oakland Center
11:42PM 36.7858 -121.1931 140° Southeast 450 518 26,300 2,220 Climbing Oakland Center
11:43PM 36.6883 -121.0886 139° Southeast 461 531 28,300 2,160 Climbing Oakland Center
11:44PM 36.5889 -120.9811 139° Southeast 470 541 30,700 2,220 Climbing Oakland Center
11:45PM 36.4906 -120.8742 139° Southeast 471 542 32,900 2,160 Climbing Oakland Center
11:46PM 36.3947 -120.7675 138° Southeast 465 535 35,200 2,040 Climbing Oakland Center
11:47PM 36.2997 -120.6642 139° Southeast 456 525 37,100 1,620 Climbing Oakland Center
11:48PM 36.2033 -120.5653 140° Southeast 450 518 38,500 900 Climbing Oakland Center
11:49PM 36.1064 -120.4589 138° Southeast 475 547 39,000 240 Climbing Oakland Center
11:50PM 36.0089 -120.3564 140° Southeast 460 529 39,000  Level Oakland Center
11:51PM 35.9147 -120.2597 140° Southeast 442 509 39,000  Level Oakland Center
11:52PM 35.8192 -120.1586 139° Southeast 448 516 39,000  Level Oakland Center
11:53PM 35.7236 -120.0603 140° Southeast 445 512 39,000  Level Oakland Center
11:54PM 35.6047 -119.9414 141° Southeast 454 522 39,000  Level Oakland Center
11:55PM 35.5000 -119.8517 145° Southeast 454 522 39,000  Level Oakland Center
11:56PM 35.3733 -119.7419 145° Southeast 461 531 39,000  Level Los Angeles Center
11:57PM 35.2681 -119.6514 145° Southeast 461 531 39,000  Level Los Angeles Center
11:58PM 35.1631 -119.5622 145° Southeast 458 527 39,000  Level Los Angeles Center
12:00AM 35.0586 -119.4717 145° Southeast 459 528 39,000  Level Los Angeles Center
12:01AM 34.9531 -119.3831 145° Southeast 461 531 39,000  Level Los Angeles Center
12:02AM 34.8483 -119.2931 145° Southeast 461 531 39,000  Level Los Angeles Center
12:03AM 34.7408 -119.2031 145° Southeast 466 536 39,000  Level Los Angeles Center
12:04AM 34.6214 -119.1039 146° Southeast 467 537 39,000  Level Los Angeles Center
12:05AM 34.5164 -119.0153 145° Southeast 462 532 39,000  Level Los Angeles Center
12:06AM 34.4111 -118.9281 146° Southeast 461 531 39,000  Level Los Angeles Center
12:07AM 34.3108 -118.8350 143° Southeast 456 525 39,000 -300 Level Los Angeles Center
12:08AM 34.2156 -118.7333 139° Southeast 456 525 38,400 -780 Descending Los Angeles Center
12:09AM 34.1203 -118.6311 138° Southeast 458 527 37,500 -1,080 Descending Los Angeles Center
12:10AM 34.0083 -118.5128 139° Southeast 444 511 36,300 -1,080 Descending Los Angeles Center
12:11AM 33.9139 -118.4089 138° Southeast 454 522 35,400 -1,440 Descending Los Angeles Center
12:12AM 33.8258 -118.2978 134° Southeast 458 527 33,400 -1,860 Descending Los Angeles Center
12:13AM 33.7406 -118.1856 132° Southeast 438 504 31,700 -1,920 Descending Los Angeles Center
12:14AM 33.6569 -118.0817 134° Southeast 430 495 29,500 -2,220 Descending Los Angeles Center
12:15AM 33.5736 -117.9833 135° Southeast 420 483 27,200 -2,280 Descending Los Angeles Center
12:16AM 33.4956 -117.8900 135° Southeast 399 459 24,900 -2,160 Descending Los Angeles Center
12:17AM 33.4194 -117.8003 135° Southeast 386 444 22,800 -2,100 Descending Los Angeles Center
12:17AM 33.3833 -117.7500 131° Southeast 372 428 21,700 -2,100 Descending Southern California TRACON
12:18AM 33.3478 -117.7136 139° Southeast 370 426 20,700 -1,980 Descending Los Angeles Center
12:19AM 33.2775 -117.6308 135° Southeast 358 412 18,700 -2,100 Descending Los Angeles Center
12:19AM 33.2333 -117.5833 138° Southeast 344 396 17,600 -2,100 Descending Southern California TRACON
12:20AM 33.1667 -117.5000 134° Southeast 331 381 15,700 -2,100 Descending Southern California TRACON
12:21AM 33.1000 -117.4500 148° Southeast 317 365 13,400 -2,100 Descending Southern California TRACON
12:22AM 33.0742 -117.4189 135° Southeast 317 365 12,400 -2,220 Descending Los Angeles Center
12:23AM 32.9872 -117.3506 147° Southeast 314 361 9,900 -2,100 Descending Los Angeles Center
12:23AM 32.9667 -117.3333 145° Southeast 297 342 9,500 -1,140 Descending Southern California TRACON
12:24AM 32.9000 -117.2833 148° Southeast 263 303 8,400 -1,260 Descending Southern California TRACON
12:25AM 32.8636 -117.2506 143° Southeast 265 305 7,400 -600 Descending Los Angeles Center
12:27AM 32.7886 -117.1081 122° Southeast 257 296 6,800 -360 Descending Los Angeles Center
12:27AM 32.7833 -117.0833 104° East 231 266 6,600 -840 Descending Southern California TRACON
12:28AM 32.7667 -117.0167 107° East 212 244 5,700 -840 Descending Southern California TRACON
12:29AM 32.7500 -116.9500 107° East 209 241 5,000 -900 Descending Southern California TRACON
12:30AM 32.7167 -116.9167 140° Southeast 215 247 4,000 -600 Descending Southern California TRACON
12:31AM 32.6833 -116.9500 220° Southwest 198 228 3,800 -480 Descending Southern California TRACON
12:32AM 32.6833 -117.0000 270° West 172 198 3,100 -900 Descending Southern California TRACON
12:33AM 32.7000 -117.0500 292° West 160 184 2,100 -840 Descending Southern California TRACON
12:34AM 32.7167 -117.1000 292° West 147 169 1,500 -600 Descending Southern California TRACON
12:35AM 32.7186 -117.1303 274° West 146 168 1,000 -600 Descending Los Angeles Center
12:36AM 32.7314 -117.1747 289° West 139 160 400 -600 Descending Los Angeles Center